createdAt,value
2023-03-18T00:00:54.526Z,98733.75
2023-03-18T00:03:23.347Z,98723.75
2023-03-18T00:05:53.805Z,98722.41
2023-03-18T00:08:22.618Z,98728.38
2023-03-18T00:10:51.987Z,98718.09
2023-03-18T00:13:21.193Z,98714.03
2023-03-18T00:15:52.501Z,98712.94
2023-03-18T00:18:22.527Z,98721.06
2023-03-18T00:20:51.537Z,98720.00
2023-03-18T00:23:21.758Z,98715.94
2023-03-18T00:25:54.535Z,98733.50
2023-03-18T00:28:27.719Z,98731.63
2023-03-18T00:31:05.949Z,98730.00
2023-03-18T00:33:34.696Z,98732.97
2023-03-18T00:36:03.725Z,98734.56
2023-03-18T00:38:34.677Z,98735.63
2023-03-18T00:41:13.083Z,98743.22
2023-03-18T00:43:47.538Z,98745.69
2023-03-18T00:46:18.485Z,98751.09
2023-03-18T00:48:47.865Z,98747.84
2023-03-18T00:51:19.958Z,98759.16
2023-03-18T00:53:53.830Z,98769.97
2023-03-18T00:56:26.108Z,98778.03
2023-03-18T00:58:55.198Z,98766.25
2023-03-18T01:01:24.946Z,98761.66
2023-03-18T01:03:54.158Z,98762.94
2023-03-18T01:06:32.144Z,98762.97
2023-03-18T01:09:03.282Z,98758.34
2023-03-18T01:11:34.916Z,98757.84
2023-03-18T01:14:04.567Z,98762.72
2023-03-18T01:16:36.054Z,98765.16
2023-03-18T01:19:05.596Z,98771.66
2023-03-18T01:21:35.495Z,98770.31
2023-03-18T01:24:05.852Z,98774.34
2023-03-18T01:26:37.671Z,98776.78
2023-03-18T01:29:06.574Z,98790.03
2023-03-18T01:31:36.302Z,98788.69
2023-03-18T01:34:12.835Z,98783.81
2023-03-18T01:36:50.969Z,98805.78
2023-03-18T01:39:24.106Z,98817.66
2023-03-18T01:42:27.373Z,98828.94
2023-03-18T01:45:23.761Z,98820.25
2023-03-18T01:47:54.862Z,98830.31
2023-03-18T01:50:34.603Z,98822.53
2023-03-18T01:53:10.090Z,98809.81
2023-03-18T01:55:42.647Z,98813.59
2023-03-18T01:58:23.929Z,98810.63
2023-03-18T02:01:01.662Z,98806.03
2023-03-18T02:03:32.187Z,98795.72
2023-03-18T02:06:02.774Z,98791.66
2023-03-18T02:08:32.250Z,98797.06
2023-03-18T02:11:04.668Z,98799.22
2023-03-18T02:13:35.030Z,98802.22
2023-03-18T02:16:08.498Z,98812.97
2023-03-18T02:18:45.432Z,98823.00
2023-03-18T02:21:36.287Z,98809.72
2023-03-18T02:24:41.239Z,98828.28
2023-03-18T02:27:26.634Z,98841.25
2023-03-18T02:30:02.797Z,98858.34
2023-03-18T02:32:36.244Z,98878.81
2023-03-18T02:35:10.688Z,98885.63
2023-03-18T02:37:42.014Z,98894.03
2023-03-18T02:40:25.482Z,98888.63
2023-03-18T02:42:54.870Z,98899.69
2023-03-18T02:45:46.740Z,98903.75
2023-03-18T02:48:19.570Z,98905.91
2023-03-18T02:51:03.051Z,98906.72
2023-03-18T02:53:32.332Z,98920.19
2023-03-18T02:56:03.725Z,98930.19
2023-03-18T02:58:34.936Z,98942.28
2023-03-18T03:01:09.083Z,98944.41
2023-03-18T03:03:39.645Z,98949.94
2023-03-18T03:06:09.618Z,98950.31
2023-03-18T03:08:40.568Z,98962.09
2023-03-18T03:11:11.043Z,98977.41
2023-03-18T03:13:46.552Z,98968.75
2023-03-18T03:16:19.443Z,98977.31
2023-03-18T03:18:48.065Z,98977.63
2023-03-18T03:21:17.691Z,98985.44
2023-03-18T03:23:48.304Z,98994.63
2023-03-18T03:26:18.948Z,99019.56
2023-03-18T03:28:48.669Z,99013.44
2023-03-18T03:31:19.014Z,99022.25
2023-03-18T03:33:48.352Z,99015.50
2023-03-18T03:36:19.598Z,99042.16
2023-03-18T03:38:47.936Z,99044.03
2023-03-18T03:41:17.691Z,99044.44
2023-03-18T03:43:46.745Z,99054.22
2023-03-18T03:46:16.024Z,99036.72
2023-03-18T03:48:45.600Z,99059.19
2023-03-18T03:51:15.540Z,99058.03
2023-03-18T03:53:46.887Z,99045.78
2023-03-18T03:56:16.955Z,99057.25
2023-03-18T03:58:46.563Z,99063.44
2023-03-18T04:01:15.797Z,99067.31
2023-03-18T04:03:47.089Z,99080.31
2023-03-18T04:06:16.108Z,99097.00
2023-03-18T04:08:53.261Z,99111.50
2023-03-18T04:11:22.872Z,99115.31
2023-03-18T04:13:51.681Z,99140.41
2023-03-18T04:16:20.911Z,99141.31
2023-03-18T04:18:49.583Z,99130.31
2023-03-18T04:21:18.940Z,99140.59
2023-03-18T04:23:53.317Z,99155.44
2023-03-18T04:26:22.806Z,99148.22
2023-03-18T04:28:53.073Z,99157.97
2023-03-18T04:31:23.865Z,99158.72
2023-03-18T04:33:54.175Z,99153.97
2023-03-18T04:36:24.129Z,99141.06
2023-03-18T04:38:54.373Z,99138.59
2023-03-18T04:41:24.346Z,99148.28
2023-03-18T04:44:00.587Z,99150.38
2023-03-18T04:46:39.509Z,99158.84
2023-03-18T04:49:10.714Z,99162.91
2023-03-18T04:51:42.010Z,99176.59
2023-03-18T04:54:20.920Z,99184.16
2023-03-18T04:56:53.781Z,99171.41
2023-03-18T04:59:23.574Z,99198.97
2023-03-18T05:01:54.680Z,99182.72
2023-03-18T05:04:24.298Z,99179.44
2023-03-18T05:06:55.288Z,99174.47
2023-03-18T05:09:32.284Z,99169.09
2023-03-18T05:12:02.908Z,99184.34
2023-03-18T05:14:38.320Z,99180.28
2023-03-18T05:17:07.356Z,99179.50
2023-03-18T05:19:39.135Z,99198.28
2023-03-18T05:22:23.412Z,99179.78
2023-03-18T05:25:02.557Z,99158.63
2023-03-18T05:27:34.702Z,99190.38
2023-03-18T05:30:10.575Z,99188.34
2023-03-18T05:32:44.688Z,99190.59
2023-03-18T05:35:15.091Z,99207.28
2023-03-18T05:37:50.496Z,99193.06
2023-03-18T05:40:22.303Z,99194.69
2023-03-18T05:43:12.054Z,99196.59
2023-03-18T05:45:50.111Z,99197.84
2023-03-18T05:48:22.734Z,99198.50
2023-03-18T05:50:54.912Z,99191.78
2023-03-18T05:53:27.390Z,99197.38
2023-03-18T05:56:06.823Z,99182.94
2023-03-18T05:58:35.645Z,99187.50
2023-03-18T06:01:21.517Z,99183.19
2023-03-18T06:03:52.267Z,99180.06
2023-03-18T06:06:22.097Z,99195.41
2023-03-18T06:08:51.000Z,99188.69
2023-03-18T06:11:20.173Z,99195.88
2023-03-18T06:13:52.894Z,99201.66
2023-03-18T06:16:23.051Z,99208.03
2023-03-18T06:18:54.561Z,99212.56
2023-03-18T06:21:23.258Z,99218.16
2023-03-18T06:23:52.481Z,99214.22
2023-03-18T06:26:23.600Z,99221.41
2023-03-18T06:28:52.139Z,99212.38
2023-03-18T06:31:23.256Z,99212.97
2023-03-18T06:33:54.074Z,99226.31
2023-03-18T06:36:26.913Z,99203.09
2023-03-18T06:38:56.677Z,99202.28
2023-03-18T06:41:32.495Z,99199.97
2023-03-18T06:44:15.299Z,99184.63
2023-03-18T06:46:46.255Z,99200.25
2023-03-18T06:49:16.208Z,99204.78
2023-03-18T06:51:52.122Z,99199.22
2023-03-18T06:54:22.711Z,99208.47
2023-03-18T06:56:52.477Z,99219.56
2023-03-18T06:59:27.039Z,99219.78
2023-03-18T07:02:00.356Z,99217.66
2023-03-18T07:04:31.454Z,99208.75
2023-03-18T07:07:02.655Z,99220.03
2023-03-18T07:09:34.232Z,99212.38
2023-03-18T07:12:05.073Z,99220.03
2023-03-18T07:14:35.630Z,99232.28
2023-03-18T07:17:04.355Z,99227.47
2023-03-18T07:19:34.620Z,99245.03
2023-03-18T07:22:03.448Z,99226.78
2023-03-18T07:24:33.813Z,99241.31
2023-03-18T07:27:02.557Z,99228.69
2023-03-18T07:29:34.920Z,99245.97
2023-03-18T07:32:04.939Z,99241.94
2023-03-18T07:34:34.971Z,99237.34
2023-03-18T07:37:04.583Z,99225.22
2023-03-18T07:39:34.779Z,99226.22
2023-03-18T07:42:04.103Z,99224.31
2023-03-18T07:44:33.901Z,99222.22
2023-03-18T07:47:02.395Z,99239.38
2023-03-18T07:49:32.580Z,99239.19
2023-03-18T07:52:02.742Z,99240.50
2023-03-18T07:54:31.921Z,99222.94
2023-03-18T07:57:02.759Z,99208.53
2023-03-18T07:59:31.781Z,99217.88
2023-03-18T08:02:02.607Z,99224.06
2023-03-18T08:04:33.698Z,99211.22
2023-03-18T08:07:03.722Z,99214.16
2023-03-18T08:09:33.773Z,99224.63
2023-03-18T08:12:02.424Z,99237.66
2023-03-18T08:14:32.654Z,99238.13
2023-03-18T08:17:04.491Z,99261.09
2023-03-18T08:19:36.291Z,99258.59
2023-03-18T08:22:05.163Z,99270.09
2023-03-18T08:24:34.256Z,99273.94
2023-03-18T08:27:02.988Z,99260.47
2023-03-18T08:29:31.908Z,99277.47
2023-03-18T08:32:02.088Z,99278.28
2023-03-18T08:34:31.562Z,99279.47
2023-03-18T08:37:01.306Z,99275.31
2023-03-18T08:39:34.616Z,99273.25
2023-03-18T08:42:07.722Z,99276.31
2023-03-18T08:44:37.728Z,99284.19
2023-03-18T08:47:06.953Z,99269.38
2023-03-18T08:49:36.089Z,99276.31
2023-03-18T08:52:05.981Z,99287.38
2023-03-18T08:54:34.702Z,99291.78
2023-03-18T08:57:03.603Z,99292.88
2023-03-18T08:59:32.545Z,99277.94
2023-03-18T09:02:01.636Z,99285.38
2023-03-18T09:04:31.444Z,99291.72
2023-03-18T09:07:02.898Z,99306.78
2023-03-18T09:09:43.250Z,99304.91
2023-03-18T09:12:15.091Z,99308.22
2023-03-18T09:14:44.417Z,99315.22
2023-03-18T09:17:14.656Z,99330.63
2023-03-18T09:19:43.790Z,99336.03
2023-03-18T09:22:12.731Z,99342.38
2023-03-18T09:24:43.109Z,99337.22
2023-03-18T09:27:11.755Z,99353.94
2023-03-18T09:29:42.540Z,99347.50
2023-03-18T09:32:11.829Z,99356.31
2023-03-18T09:34:41.489Z,99369.63
2023-03-18T09:37:11.055Z,99377.84
2023-03-18T09:39:42.123Z,99386.03
2023-03-18T09:42:17.826Z,99387.16
2023-03-18T09:45:00.850Z,99390.00
2023-03-18T09:47:48.077Z,99386.25
2023-03-18T09:50:32.821Z,99386.41
2023-03-18T09:53:19.637Z,99404.97
2023-03-18T09:55:53.986Z,99404.59
2023-03-18T09:58:43.812Z,99398.06
2023-03-18T10:01:14.921Z,99393.66
2023-03-18T10:03:57.366Z,99406.16
2023-03-18T10:06:30.357Z,99403.50
2023-03-18T10:09:15.678Z,99387.78
2023-03-18T10:11:51.775Z,99393.88
2023-03-18T10:14:30.614Z,99387.69
2023-03-18T10:17:23.147Z,99389.44
2023-03-18T10:20:00.493Z,99385.91
2023-03-18T10:23:03.670Z,99368.94
2023-03-18T10:25:48.474Z,99358.31
2023-03-18T10:28:53.897Z,99381.06
2023-03-18T10:31:32.543Z,99394.03
2023-03-18T10:34:22.954Z,99405.47
2023-03-18T10:37:06.884Z,99411.84
2023-03-18T10:39:39.008Z,99420.38
2023-03-18T10:42:22.164Z,99425.91
2023-03-18T10:44:53.385Z,99419.97
2023-03-18T10:47:39.140Z,99427.94
2023-03-18T10:50:19.444Z,99412.00
2023-03-18T10:52:57.814Z,99431.34
2023-03-18T10:55:37.492Z,99418.38
2023-03-18T10:58:24.155Z,99431.06
2023-03-18T11:00:56.203Z,99431.63
2023-03-18T11:03:52.312Z,99440.22
2023-03-18T11:06:32.117Z,99456.38
2023-03-18T11:09:11.943Z,99457.72
2023-03-18T11:11:46.408Z,99463.34
2023-03-18T11:14:23.590Z,99464.13
2023-03-18T11:17:06.410Z,99467.59
2023-03-18T11:19:40.344Z,99469.72
2023-03-18T11:22:23.149Z,99473.25
2023-03-18T11:25:04.047Z,99486.66
2023-03-18T11:27:42.377Z,99490.88
2023-03-18T11:30:37.189Z,99501.59
2023-03-18T11:33:05.952Z,99503.72
2023-03-18T11:35:41.658Z,99498.69
2023-03-18T11:38:38.171Z,99510.78
2023-03-18T11:41:12.321Z,99496.16
2023-03-18T11:44:02.216Z,99498.22
2023-03-18T11:46:47.008Z,99502.75
2023-03-18T11:49:21.784Z,99509.03
2023-03-18T11:52:30.922Z,99508.78
2023-03-18T11:55:19.289Z,99514.19
2023-03-18T11:58:27.113Z,99525.00
2023-03-18T12:01:03.910Z,99524.03
2023-03-18T12:03:42.746Z,99517.00
2023-03-18T12:06:24.476Z,99518.25
2023-03-18T12:09:19.350Z,99526.09
2023-03-18T12:12:07.535Z,99520.72
2023-03-18T12:14:47.250Z,99518.31
2023-03-18T12:17:34.140Z,99526.50
2023-03-18T12:20:42.653Z,99520.81
2023-03-18T12:23:50.088Z,99530.00
2023-03-18T12:26:38.695Z,99534.44
2023-03-18T12:29:36.794Z,99540.56
2023-03-18T12:32:30.735Z,99537.28
2023-03-18T12:35:28.658Z,99540.97
2023-03-18T12:38:36.257Z,99534.06
2023-03-18T12:41:20.145Z,99541.59
2023-03-18T12:44:16.055Z,99550.50
2023-03-18T12:47:12.051Z,99550.88
2023-03-18T12:49:53.167Z,99541.56
2023-03-18T12:52:32.305Z,99546.88
2023-03-18T12:55:14.712Z,99533.41
2023-03-18T12:57:56.427Z,99551.69
2023-03-18T13:00:50.063Z,99556.84
2023-03-18T13:03:39.406Z,99549.84
2023-03-18T13:06:33.874Z,99561.06
2023-03-18T13:09:22.976Z,99563.22
2023-03-18T13:12:02.625Z,99560.25
2023-03-18T13:14:51.490Z,99547.47
2023-03-18T13:17:42.381Z,99557.47
2023-03-18T13:20:17.770Z,99554.25
2023-03-18T13:22:50.657Z,99548.94
2023-03-18T13:25:47.177Z,99556.00
2023-03-18T13:28:29.989Z,99562.63
2023-03-18T13:31:11.934Z,99560.88
2023-03-18T13:33:56.129Z,99569.16
2023-03-18T13:36:48.105Z,99556.81
2023-03-18T13:39:24.376Z,99550.69
2023-03-18T13:42:11.955Z,99561.34
2023-03-18T13:44:52.013Z,99559.53
2023-03-18T13:47:23.996Z,99568.81
2023-03-18T13:50:23.858Z,99564.69
2023-03-18T13:53:02.859Z,99553.19
2023-03-18T13:55:54.854Z,99546.47
2023-03-18T13:58:28.212Z,99564.00
2023-03-18T14:00:59.903Z,99562.53
2023-03-18T14:03:57.855Z,99568.22
2023-03-18T14:06:38.051Z,99563.47
2023-03-18T14:09:31.408Z,99564.09
2023-03-18T14:12:21.913Z,99553.66
2023-03-18T14:14:57.525Z,99556.38
2023-03-18T14:17:35.653Z,99561.88
2023-03-18T14:20:29.870Z,99560.50
2023-03-18T14:23:26.252Z,99574.03
2023-03-18T14:26:18.997Z,99574.00
2023-03-18T14:29:10.794Z,99570.94
2023-03-18T14:31:40.289Z,99573.13
2023-03-18T14:34:20.210Z,99578.09
2023-03-18T14:36:59.489Z,99572.66
2023-03-18T14:39:42.076Z,99582.00
2023-03-18T14:42:19.936Z,99573.56
2023-03-18T14:44:55.768Z,99574.69
2023-03-18T14:47:39.717Z,99575.63
2023-03-18T14:50:24.274Z,99579.44
2023-03-18T14:53:23.121Z,99588.03
2023-03-18T14:55:57.041Z,99584.00
2023-03-18T14:58:30.482Z,99594.75
2023-03-18T15:01:07.473Z,99583.78
2023-03-18T15:03:38.932Z,99589.47
2023-03-18T15:06:08.492Z,99582.78
2023-03-18T15:08:48.049Z,99574.41
2023-03-18T15:11:19.910Z,99574.84
2023-03-18T15:13:50.162Z,99576.88
2023-03-18T15:16:20.880Z,99564.28
2023-03-18T15:18:55.318Z,99567.78
2023-03-18T15:21:35.586Z,99564.72
2023-03-18T15:24:08.519Z,99566.00
2023-03-18T15:26:42.938Z,99558.69
2023-03-18T15:29:31.101Z,99556.66
2023-03-18T15:32:21.822Z,99557.34
2023-03-18T15:35:14.347Z,99554.13
2023-03-18T15:37:46.408Z,99550.19
2023-03-18T15:40:31.770Z,99550.06
2023-03-18T15:43:06.123Z,99549.47
2023-03-18T15:45:36.649Z,99537.34
2023-03-18T15:48:09.408Z,99547.19
2023-03-18T15:50:38.016Z,99551.88
2023-03-18T15:53:17.850Z,99544.00
2023-03-18T15:56:01.755Z,99531.75
2023-03-18T15:58:39.667Z,99541.19
2023-03-18T16:01:18.283Z,99534.88
2023-03-18T16:03:47.508Z,99525.91
2023-03-18T16:06:17.964Z,99534.25
2023-03-18T16:08:47.123Z,99533.75
2023-03-18T16:11:17.245Z,99521.06
2023-03-18T16:13:47.710Z,99514.72
2023-03-18T16:16:22.313Z,99520.75
2023-03-18T16:18:50.640Z,99515.16
2023-03-18T16:21:23.623Z,99512.06
2023-03-18T16:23:53.184Z,99517.75
2023-03-18T16:26:25.746Z,99510.34
2023-03-18T16:28:57.219Z,99506.78
2023-03-18T16:31:30.252Z,99507.97
2023-03-18T16:34:00.916Z,99506.34
2023-03-18T16:36:35.498Z,99507.78
2023-03-18T16:39:35.188Z,99502.34
2023-03-18T16:42:07.713Z,99511.72
2023-03-18T16:44:37.861Z,99504.63
2023-03-18T16:47:07.374Z,99508.56
2023-03-18T16:49:41.987Z,99488.13
2023-03-18T16:52:15.056Z,99495.97
2023-03-18T16:54:46.546Z,99490.81
2023-03-18T16:57:26.978Z,99494.00
2023-03-18T17:00:07.905Z,99492.91
2023-03-18T17:02:40.195Z,99492.06
2023-03-18T17:05:19.342Z,99485.69
2023-03-18T17:07:50.217Z,99478.31
2023-03-18T17:10:22.097Z,99487.31
2023-03-18T17:13:02.869Z,99481.38
2023-03-18T17:15:38.722Z,99479.69
2023-03-18T17:18:12.704Z,99480.63
2023-03-18T17:20:44.289Z,99473.22
2023-03-18T17:23:24.046Z,99480.09
2023-03-18T17:26:15.113Z,99471.50
2023-03-18T17:28:48.333Z,99464.19
2023-03-18T17:31:20.698Z,99452.28
2023-03-18T17:33:50.231Z,99449.88
2023-03-18T17:36:18.975Z,99447.81
2023-03-18T17:38:48.106Z,99452.34
2023-03-18T17:41:22.174Z,99447.41
2023-03-18T17:43:51.832Z,99441.41
2023-03-18T17:46:20.156Z,99445.34
2023-03-18T17:48:49.581Z,99442.06
2023-03-18T17:51:24.210Z,99436.28
2023-03-18T17:54:01.028Z,99424.25
2023-03-18T17:56:31.477Z,99433.41
2023-03-18T17:59:01.592Z,99415.59
2023-03-18T18:01:32.225Z,99408.25
2023-03-18T18:04:02.573Z,99407.06
2023-03-18T18:06:35.666Z,99403.63
2023-03-18T18:09:07.448Z,99399.59
2023-03-18T18:11:45.165Z,99399.84
2023-03-18T18:14:24.525Z,99391.53
2023-03-18T18:17:01.541Z,99384.28
2023-03-18T18:19:31.878Z,99395.72
2023-03-18T18:22:04.275Z,99383.34
2023-03-18T18:24:34.512Z,99361.31
2023-03-18T18:27:05.805Z,99360.53
2023-03-18T18:29:35.493Z,99366.47
2023-03-18T18:32:05.541Z,99369.19
2023-03-18T18:34:34.444Z,99386.88
2023-03-18T18:37:03.564Z,99366.28
2023-03-18T18:39:32.197Z,99362.81
2023-03-18T18:42:04.727Z,99352.06
2023-03-18T18:44:35.220Z,99345.69
2023-03-18T18:47:04.030Z,99352.28
2023-03-18T18:49:35.316Z,99351.84
2023-03-18T18:52:07.779Z,99353.84
2023-03-18T18:54:36.348Z,99363.34
2023-03-18T18:57:06.332Z,99347.06
2023-03-18T18:59:35.730Z,99348.03
2023-03-18T19:02:32.226Z,99342.81
2023-03-18T19:05:07.229Z,99340.78
2023-03-18T19:07:37.876Z,99335.16
2023-03-18T19:10:07.700Z,99340.28
2023-03-18T19:12:36.358Z,99307.16
2023-03-18T19:15:06.567Z,99309.00
2023-03-18T19:17:37.488Z,99313.94
2023-03-18T19:20:32.950Z,99313.72
2023-03-18T19:23:03.853Z,99313.91
2023-03-18T19:25:35.746Z,99310.00
2023-03-18T19:28:07.064Z,99318.81
2023-03-18T19:30:36.632Z,99320.53
2023-03-18T19:33:17.848Z,99324.44
2023-03-18T19:35:47.829Z,99325.59
2023-03-18T19:38:21.479Z,99315.41
2023-03-18T19:40:54.028Z,99320.31
2023-03-18T19:43:23.840Z,99325.50
2023-03-18T19:45:52.216Z,99321.88
2023-03-18T19:48:25.897Z,99317.03
2023-03-18T19:50:56.754Z,99323.03
2023-03-18T19:53:30.356Z,99335.22
2023-03-18T19:56:00.326Z,99328.13
2023-03-18T19:58:31.400Z,99341.78
2023-03-18T20:01:02.844Z,99341.19
2023-03-18T20:03:34.230Z,99338.09
2023-03-18T20:06:02.954Z,99357.22
2023-03-18T20:08:32.551Z,99346.31
2023-03-18T20:11:02.112Z,99345.69
2023-03-18T20:13:32.241Z,99338.50
2023-03-18T20:16:02.391Z,99353.50
2023-03-18T20:18:32.580Z,99346.94
2023-03-18T20:21:03.499Z,99340.13
2023-03-18T20:23:34.402Z,99338.00
2023-03-18T20:26:04.395Z,99338.22
2023-03-18T20:28:33.863Z,99341.34
2023-03-18T20:31:02.608Z,99353.88
2023-03-18T20:33:34.031Z,99353.44
2023-03-18T20:36:03.492Z,99348.50
2023-03-18T20:38:39.875Z,99350.22
2023-03-18T20:41:12.929Z,99360.47
2023-03-18T20:43:42.579Z,99356.41
2023-03-18T20:46:14.571Z,99370.00
2023-03-18T20:48:46.271Z,99367.31
2023-03-18T20:51:22.678Z,99357.66
2023-03-18T20:53:52.181Z,99362.78
2023-03-18T20:56:26.443Z,99366.50
2023-03-18T20:58:55.698Z,99369.34
2023-03-18T21:01:24.768Z,99366.88
2023-03-18T21:03:55.985Z,99364.22
2023-03-18T21:06:25.297Z,99371.66
2023-03-18T21:08:55.666Z,99373.69
2023-03-18T21:11:31.918Z,99364.41
2023-03-18T21:14:02.295Z,99354.16
2023-03-18T21:16:37.174Z,99355.59
2023-03-18T21:19:07.355Z,99373.25
2023-03-18T21:21:40.161Z,99382.38
2023-03-18T21:24:28.725Z,99369.34
2023-03-18T21:27:05.970Z,99375.94
2023-03-18T21:29:35.765Z,99376.53
2023-03-18T21:32:05.280Z,99379.84
2023-03-18T21:34:35.469Z,99375.72
2023-03-18T21:37:04.549Z,99358.84
2023-03-18T21:39:34.570Z,99360.72
2023-03-18T21:42:04.729Z,99357.81
2023-03-18T21:44:34.383Z,99364.00
2023-03-18T21:47:03.316Z,99359.22
2023-03-18T21:49:32.662Z,99369.53
2023-03-18T21:52:03.666Z,99359.03
2023-03-18T21:54:33.951Z,99364.38
2023-03-18T21:57:03.161Z,99356.63
2023-03-18T21:59:32.005Z,99356.00
2023-03-18T22:02:02.855Z,99366.69
2023-03-18T22:04:32.279Z,99378.66
2023-03-18T22:07:02.510Z,99366.47
2023-03-18T22:09:32.297Z,99369.75
2023-03-18T22:12:02.536Z,99370.28
2023-03-18T22:14:31.786Z,99372.53
2023-03-18T22:17:01.342Z,99366.25
2023-03-18T22:19:31.255Z,99360.06
2023-03-18T22:22:01.423Z,99368.53
2023-03-18T22:24:31.752Z,99371.41
2023-03-18T22:27:02.441Z,99382.03
2023-03-18T22:29:32.116Z,99390.81
2023-03-18T22:32:02.516Z,99390.34
2023-03-18T22:34:33.518Z,99386.94
2023-03-18T22:37:03.685Z,99396.09
2023-03-18T22:39:34.095Z,99398.13
2023-03-18T22:42:04.142Z,99391.25
2023-03-18T22:44:32.772Z,99402.59
2023-03-18T22:47:03.497Z,99404.25
2023-03-18T22:49:32.645Z,99407.84
2023-03-18T22:52:03.048Z,99413.09
2023-03-18T22:54:32.326Z,99415.22
2023-03-18T22:57:02.376Z,99424.16
2023-03-18T22:59:32.591Z,99417.75
2023-03-18T23:02:02.359Z,99426.91
2023-03-18T23:04:32.396Z,99429.00
2023-03-18T23:07:02.655Z,99428.56
2023-03-18T23:09:39.293Z,99434.88
2023-03-18T23:12:12.540Z,99432.84
2023-03-18T23:14:42.414Z,99435.63
2023-03-18T23:17:21.494Z,99440.97
2023-03-18T23:19:52.102Z,99440.69
2023-03-18T23:22:31.979Z,99445.22
2023-03-18T23:25:02.273Z,99443.66
2023-03-18T23:27:35.589Z,99451.63
2023-03-18T23:30:05.564Z,99456.53
2023-03-18T23:32:35.942Z,99473.88
2023-03-18T23:35:04.960Z,99469.69
2023-03-18T23:37:35.355Z,99474.06
2023-03-18T23:40:06.661Z,99467.63
2023-03-18T23:42:36.599Z,99480.06
2023-03-18T23:45:07.507Z,99482.91
2023-03-18T23:47:38.016Z,99491.56
2023-03-18T23:50:08.960Z,99494.66
2023-03-18T23:52:39.862Z,99502.47
2023-03-18T23:55:26.818Z,99505.50
2023-03-18T23:58:00.978Z,99514.25
